Detall de PIREP

Printer-friendly versionPDF version

[2010/11/06 15:41:00]
Flight IATA:CT1006
Pilot Number:026
Company ICAO:CAT
Aircraft Type:DC85/A
PAX:135
Departing Airport: LTBA
Destination Airport: LGAV
Alternate Airport:LGTS
Online: VATSIM
Route:BIG UN604 KEPIR
Flight Level:FL320
No Slew and time accel
No pause
Crash detect
Detect pilot in Cockpit between each 30 and 45 minutes
15:41 Zero fuel Weight: 178661 Lbs, Fuel Weight: 26988 Lbs
15:41 VATSIM:LTBA 061520Z 19003KT 4100 BR NSC 12/11 Q1015 BECMG 9999 NSW
15:41 VATSIM:LGAV 061520Z 13003KT CAVOK 19/14 Q1015 NOSIG
15:41 VOICE CATALONIAN / ALMOGAVERS ROUTE
15:48 Parking Brakes off
16:16 Take-off
16:16 Take off Weight: 204198 Lbs
16:16 Wind: 166º @ 003 Knots Heading: 179º
16:16 POS N40º 58´ 47´´ E028º 48´ 31´´
16:16 Gear Up: 179 Knots
16:16 Flaps:2 at 179 Knots
16:17 Flaps:1 at 193 Knots
16:18 Flaps:0 at 235 Knots
16:29 TOC
16:29 Fuel Weight: 20905 Lb
16:31Wind:216º@001 Knots Heading: 216º Ground Speed: 469 Knots Altitude 32034 ft
16:44 TOD
16:44 Fuel Weight: 17259 Lb
16:46 Wind:284º@002 Knots Heading: 236º Ground Speed: 475 Knots Altitude 29130 ft
17:01 Wind:338º@001 Knots Heading: 268º Ground Speed: 280 Knots Altitude 9330 ft
17:09 Flaps:1 at 214 Knots
17:09 Gear Down: 205 Knots
17:11 Flaps:2 at 173 Knots
17:11 Flaps:3 at 168 Knots
17:12 Flaps:4 at 162 Knots
17:12 Flaps:5 at 153 Knots
17:13 TouchDown:Rate -198 ft/min Speed: 115 Knots
17:13 VATSIM:LGAV 061650Z 00000KT CAVOK 17/13 Q1015
17:13 Land
17:13 Wind:322º@000 Knots
17:13 Heading: 025º
17:13 Flight Duration: 00:57
17:13 Landing Weight: 192495 Lbs
17:13 POS N37º 56´ 13´´ E023º 57´ 22´´
17:17 Parking brakes on
17:17 Block to Block Duration: 01:29
17:17 Final Fuel: 13509 Lbls
17:17 Spent Fuel: 13478 Lbls
17:17 Flight Length: 360 NM
17:17 TOD Land Length: 159 NM

Exportar CSV

Powered by Drupal - Modified by Danger4k